sensor_id;sensor_type;location;lat;lon;timestamp;pressure;altitude;pressure_sealevel;temperature;humidity
36598;BME280;22607;49.550;11.940;2023-12-29T00:00:42;96813.56;;;7.91;100.00
36598;BME280;22607;49.550;11.940;2023-12-29T00:03:09;96803.41;;;7.88;100.00
36598;BME280;22607;49.550;11.940;2023-12-29T00:05:36;96814.38;;;7.92;100.00
36598;BME280;22607;49.550;11.940;2023-12-29T00:08:05;96811.56;;;7.85;100.00
36598;BME280;22607;49.550;11.940;2023-12-29T00:10:42;96815.97;;;7.84;100.00
36598;BME280;22607;49.550;11.940;2023-12-29T00:13:12;96814.38;;;7.92;100.00
36598;BME280;22607;49.550;11.940;2023-12-29T00:15:39;96811.41;;;7.86;100.00
36598;BME280;22607;49.550;11.940;2023-12-29T00:18:06;96813.56;;;7.91;100.00
36598;BME280;22607;49.550;11.940;2023-12-29T00:20:33;96812.78;;;7.99;100.00
36598;BME280;22607;49.550;11.940;2023-12-29T00:23:07;96809.84;;;8.02;100.00
36598;BME280;22607;49.550;11.940;2023-12-29T00:25:39;96804.59;;;7.94;100.00
36598;BME280;22607;49.550;11.940;2023-12-29T00:28:06;96800.63;;;7.90;100.00
36598;BME280;22607;49.550;11.940;2023-12-29T00:30:38;96808.88;;;8.03;100.00
36598;BME280;22607;49.550;11.940;2023-12-29T00:33:23;96808.72;;;8.05;100.00
36598;BME280;22607;49.550;11.940;2023-12-29T00:35:50;96812.44;;;7.94;100.00
36598;BME280;22607;49.550;11.940;2023-12-29T00:38:30;96803.94;;;7.92;100.00
36598;BME280;22607;49.550;11.940;2023-12-29T00:40:57;96811.78;;;7.92;100.00
36598;BME280;22607;49.550;11.940;2023-12-29T00:43:26;96810.84;;;8.01;100.00
36598;BME280;22607;49.550;11.940;2023-12-29T00:45:52;96803.50;;;8.05;100.00
36598;BME280;22607;49.550;11.940;2023-12-29T00:48:20;96806.91;;;8.05;100.00
36598;BME280;22607;49.550;11.940;2023-12-29T00:50:47;96808.56;;;8.06;100.00
36598;BME280;22607;49.550;11.940;2023-12-29T00:53:19;96811.88;;;8.17;100.00
36598;BME280;22607;49.550;11.940;2023-12-29T00:55:46;96806.75;;;8.07;100.00
36598;BME280;22607;49.550;11.940;2023-12-29T00:58:13;96792.53;;;8.01;100.00
36598;BME280;22607;49.550;11.940;2023-12-29T01:00:40;96802.69;;;8.12;100.00
36598;BME280;22607;49.550;11.940;2023-12-29T01:03:06;96810.50;;;8.04;100.00
36598;BME280;22607;49.550;11.940;2023-12-29T01:05:33;96797.78;;;8.09;100.00
36598;BME280;22607;49.550;11.940;2023-12-29T01:08:01;96802.16;;;8.00;100.00
36598;BME280;22607;49.550;11.940;2023-12-29T01:10:28;96800.28;;;7.84;100.00
36598;BME280;22607;49.550;11.940;2023-12-29T01:12:54;96804.44;;;7.95;100.00
36598;BME280;22607;49.550;11.940;2023-12-29T01:15:32;96796.59;;;7.95;100.00
36598;BME280;22607;49.550;11.940;2023-12-29T01:17:59;96797.44;;;8.04;100.00
36598;BME280;22607;49.550;11.940;2023-12-29T01:20:26;96788.69;;;7.87;100.00
36598;BME280;22607;49.550;11.940;2023-12-29T01:22:52;96795.41;;;7.90;100.00
36598;BME280;22607;49.550;11.940;2023-12-29T01:25:20;96792.44;;;7.84;100.00
36598;BME280;22607;49.550;11.940;2023-12-29T01:27:47;96785.53;;;7.75;100.00
36598;BME280;22607;49.550;11.940;2023-12-29T01:30:13;96773.19;;;7.94;100.00
36598;BME280;22607;49.550;11.940;2023-12-29T01:32:41;96770.09;;;7.90;100.00
36598;BME280;22607;49.550;11.940;2023-12-29T01:35:08;96768.25;;;7.82;100.00
36598;BME280;22607;49.550;11.940;2023-12-29T01:37:35;96767.13;;;7.93;100.00
36598;BME280;22607;49.550;11.940;2023-12-29T01:40:02;96769.19;;;8.08;100.00
36598;BME280;22607;49.550;11.940;2023-12-29T01:42:28;96751.34;;;8.03;100.00
36598;BME280;22607;49.550;11.940;2023-12-29T01:44:55;96750.03;;;8.07;100.00
36598;BME280;22607;49.550;11.940;2023-12-29T01:47:22;96765.59;;;8.09;100.00
36598;BME280;22607;49.550;11.940;2023-12-29T01:49:49;96763.00;;;8.17;100.00
36598;BME280;22607;49.550;11.940;2023-12-29T01:52:23;96761.38;;;8.24;100.00
36598;BME280;22607;49.550;11.940;2023-12-29T01:54:50;96749.72;;;8.10;100.00
36598;BME280;22607;49.550;11.940;2023-12-29T01:57:20;96757.59;;;8.19;100.00
36598;BME280;22607;49.550;11.940;2023-12-29T01:59:49;96764.50;;;8.36;100.00
36598;BME280;22607;49.550;11.940;2023-12-29T02:02:16;96757.16;;;8.32;100.00
36598;BME280;22607;49.550;11.940;2023-12-29T02:04:44;96754.53;;;8.32;100.00
36598;BME280;22607;49.550;11.940;2023-12-29T02:07:11;96747.81;;;8.29;100.00
36598;BME280;22607;49.550;11.940;2023-12-29T02:09:37;96744.03;;;8.23;100.00
36598;BME280;22607;49.550;11.940;2023-12-29T02:12:09;96739.22;;;8.53;100.00
36598;BME280;22607;49.550;11.940;2023-12-29T02:14:36;96736.41;;;8.38;100.00
36598;BME280;22607;49.550;11.940;2023-12-29T02:17:10;96730.88;;;8.58;100.00
36598;BME280;22607;49.550;11.940;2023-12-29T02:19:47;96730.81;;;8.41;100.00
36598;BME280;22607;49.550;11.940;2023-12-29T02:22:16;96724.13;;;8.47;100.00
36598;BME280;22607;49.550;11.940;2023-12-29T02:24:47;96727.22;;;8.43;100.00
36598;BME280;22607;49.550;11.940;2023-12-29T02:32:55;96718.06;;;8.30;100.00
36598;BME280;22607;49.550;11.940;2023-12-29T02:35:28;96710.84;;;8.16;100.00
36598;BME280;22607;49.550;11.940;2023-12-29T02:37:58;96736.38;;;8.30;100.00
36598;BME280;22607;49.550;11.940;2023-12-29T02:40:34;96724.56;;;8.18;100.00
36598;BME280;22607;49.550;11.940;2023-12-29T02:43:01;96737.19;;;8.22;100.00
36598;BME280;22607;49.550;11.940;2023-12-29T02:45:27;96741.59;;;8.22;100.00
36598;BME280;22607;49.550;11.940;2023-12-29T02:47:54;96744.69;;;8.17;100.00
36598;BME280;22607;49.550;11.940;2023-12-29T02:50:24;96748.78;;;8.20;100.00
36598;BME280;22607;49.550;11.940;2023-12-29T02:52:50;96735.34;;;8.06;100.00
36598;BME280;22607;49.550;11.940;2023-12-29T02:55:30;96745.81;;;8.14;100.00
36598;BME280;22607;49.550;11.940;2023-12-29T02:57:56;96740.56;;;8.14;100.00
36598;BME280;22607;49.550;11.940;2023-12-29T03:00:23;96723.88;;;8.07;100.00
36598;BME280;22607;49.550;11.940;2023-12-29T03:02:50;96728.00;;;8.18;100.00
36598;BME280;22607;49.550;11.940;2023-12-29T03:05:17;96724.44;;;8.27;100.00
36598;BME280;22607;49.550;11.940;2023-12-29T03:07:44;96711.78;;;8.06;100.00
36598;BME280;22607;49.550;11.940;2023-12-29T03:10:11;96725.84;;;8.13;100.00
36598;BME280;22607;49.550;11.940;2023-12-29T03:12:38;96722.94;;;8.17;100.00
36598;BME280;22607;49.550;11.940;2023-12-29T03:15:06;96716.84;;;7.99;100.00
36598;BME280;22607;49.550;11.940;2023-12-29T03:17:33;96715.38;;;8.05;100.00
36598;BME280;22607;49.550;11.940;2023-12-29T03:20:01;96716.50;;;8.02;100.00
36598;BME280;22607;49.550;11.940;2023-12-29T03:22:31;96707.88;;;8.10;100.00
36598;BME280;22607;49.550;11.940;2023-12-29T03:24:58;96710.31;;;8.04;100.00
36598;BME280;22607;49.550;11.940;2023-12-29T03:27:25;96709.16;;;8.14;100.00
36598;BME280;22607;49.550;11.940;2023-12-29T03:29:51;96706.38;;;7.99;100.00
36598;BME280;22607;49.550;11.940;2023-12-29T03:32:18;96693.16;;;8.01;100.00
36598;BME280;22607;49.550;11.940;2023-12-29T03:34:45;96682.66;;;7.93;100.00
36598;BME280;22607;49.550;11.940;2023-12-29T03:37:12;96681.69;;;8.02;100.00
36598;BME280;22607;49.550;11.940;2023-12-29T03:39:38;96677.28;;;7.94;100.00
36598;BME280;22607;49.550;11.940;2023-12-29T03:42:05;96664.84;;;7.96;100.00
36598;BME280;22607;49.550;11.940;2023-12-29T03:44:32;96669.56;;;7.93;100.00
36598;BME280;22607;49.550;11.940;2023-12-29T03:46:59;96657.50;;;7.92;100.00
36598;BME280;22607;49.550;11.940;2023-12-29T03:49:29;96665.97;;;7.94;100.00
36598;BME280;22607;49.550;11.940;2023-12-29T03:51:56;96659.75;;;7.86;100.00
36598;BME280;22607;49.550;11.940;2023-12-29T03:54:22;96659.25;;;7.83;100.00
36598;BME280;22607;49.550;11.940;2023-12-29T03:56:50;96658.78;;;7.87;100.00
36598;BME280;22607;49.550;11.940;2023-12-29T03:59:16;96664.47;;;7.83;100.00
36598;BME280;22607;49.550;11.940;2023-12-29T04:01:43;96654.16;;;7.73;100.00
36598;BME280;22607;49.550;11.940;2023-12-29T04:04:22;96648.88;;;7.56;100.00
36598;BME280;22607;49.550;11.940;2023-12-29T04:06:50;96653.50;;;7.71;100.00
36598;BME280;22607;49.550;11.940;2023-12-29T04:09:16;96660.19;;;7.73;100.00
36598;BME280;22607;49.550;11.940;2023-12-29T04:11:45;96654.88;;;7.48;100.00
36598;BME280;22607;49.550;11.940;2023-12-29T04:14:11;96656.06;;;7.62;100.00
36598;BME280;22607;49.550;11.940;2023-12-29T04:16:39;96656.03;;;7.46;100.00
36598;BME280;22607;49.550;11.940;2023-12-29T04:19:06;96653.06;;;7.41;100.00
36598;BME280;22607;49.550;11.940;2023-12-29T04:21:32;96654.84;;;7.40;100.00
36598;BME280;22607;49.550;11.940;2023-12-29T04:24:01;96660.31;;;7.20;100.00
36598;BME280;22607;49.550;11.940;2023-12-29T04:26:28;96655.31;;;7.09;100.00
36598;BME280;22607;49.550;11.940;2023-12-29T04:28:57;96644.03;;;7.00;100.00
36598;BME280;22607;49.550;11.940;2023-12-29T04:31:24;96656.94;;;7.02;100.00
36598;BME280;22607;49.550;11.940;2023-12-29T04:33:50;96655.88;;;7.21;100.00
36598;BME280;22607;49.550;11.940;2023-12-29T04:36:35;96656.06;;;7.19;100.00
36598;BME280;22607;49.550;11.940;2023-12-29T04:39:02;96658.25;;;7.32;100.00
36598;BME280;22607;49.550;11.940;2023-12-29T04:41:28;96658.97;;;7.16;100.00
36598;BME280;22607;49.550;11.940;2023-12-29T04:43:55;96651.97;;;7.17;100.00
36598;BME280;22607;49.550;11.940;2023-12-29T04:46:21;96659.81;;;7.17;100.00
36598;BME280;22607;49.550;11.940;2023-12-29T04:48:49;96660.09;;;7.14;100.00
36598;BME280;22607;49.550;11.940;2023-12-29T04:51:15;96658.47;;;7.13;100.00
36598;BME280;22607;49.550;11.940;2023-12-29T04:53:42;96664.66;;;7.12;100.00
36598;BME280;22607;49.550;11.940;2023-12-29T04:56:19;96666.91;;;7.06;100.00
36598;BME280;22607;49.550;11.940;2023-12-29T04:58:46;96667.88;;;7.05;100.00
36598;BME280;22607;49.550;11.940;2023-12-29T05:01:12;96665.28;;;7.05;100.00
36598;BME280;22607;49.550;11.940;2023-12-29T05:03:42;96662.22;;;7.10;100.00
36598;BME280;22607;49.550;11.940;2023-12-29T05:06:09;96663.28;;;6.99;100.00
36598;BME280;22607;49.550;11.940;2023-12-29T05:08:35;96667.88;;;7.05;100.00
36598;BME280;22607;49.550;11.940;2023-12-29T05:11:06;96656.09;;;7.01;100.00
36598;BME280;22607;49.550;11.940;2023-12-29T05:13:33;96660.81;;;6.98;100.00
36598;BME280;22607;49.550;11.940;2023-12-29T05:15:59;96667.25;;;7.12;100.00
36598;BME280;22607;49.550;11.940;2023-12-29T05:18:26;96661.59;;;7.16;100.00
36598;BME280;22607;49.550;11.940;2023-12-29T05:20:57;96666.66;;;7.18;100.00
36598;BME280;22607;49.550;11.940;2023-12-29T05:23:30;96675.38;;;7.00;100.00
36598;BME280;22607;49.550;11.940;2023-12-29T05:25:57;96673.50;;;7.19;100.00
36598;BME280;22607;49.550;11.940;2023-12-29T05:28:24;96681.91;;;7.04;100.00
36598;BME280;22607;49.550;11.940;2023-12-29T05:30:56;96683.13;;;6.92;100.00
36598;BME280;22607;49.550;11.940;2023-12-29T05:33:23;96679.97;;;7.06;100.00
36598;BME280;22607;49.550;11.940;2023-12-29T05:35:49;96673.41;;;7.02;100.00
36598;BME280;22607;49.550;11.940;2023-12-29T05:38:16;96683.25;;;7.08;100.00
36598;BME280;22607;49.550;11.940;2023-12-29T05:40:52;96692.88;;;7.08;100.00
36598;BME280;22607;49.550;11.940;2023-12-29T05:43:19;96686.53;;;7.11;100.00
36598;BME280;22607;49.550;11.940;2023-12-29T05:45:49;96681.91;;;7.04;100.00
36598;BME280;22607;49.550;11.940;2023-12-29T05:48:16;96685.50;;;7.03;100.00
36598;BME280;22607;49.550;11.940;2023-12-29T05:50:43;96687.75;;;6.98;100.00
36598;BME280;22607;49.550;11.940;2023-12-29T05:53:09;96684.97;;;7.00;100.00
36598;BME280;22607;49.550;11.940;2023-12-29T05:55:36;96683.19;;;7.00;100.00
36598;BME280;22607;49.550;11.940;2023-12-29T05:58:02;96676.91;;;6.85;100.00
36598;BME280;22607;49.550;11.940;2023-12-29T06:00:29;96682.78;;;6.87;100.00
36598;BME280;22607;49.550;11.940;2023-12-29T06:02:56;96695.00;;;6.86;100.00
36598;BME280;22607;49.550;11.940;2023-12-29T06:05:22;96689.47;;;6.89;100.00
36598;BME280;22607;49.550;11.940;2023-12-29T06:07:49;96687.09;;;6.96;100.00
36598;BME280;22607;49.550;11.940;2023-12-29T06:10:17;96689.69;;;6.96;100.00
36598;BME280;22607;49.550;11.940;2023-12-29T06:12:43;96688.34;;;6.92;100.00
36598;BME280;22607;49.550;11.940;2023-12-29T06:15:12;96683.75;;;6.86;100.00
36598;BME280;22607;49.550;11.940;2023-12-29T06:17:39;96679.81;;;6.81;100.00
36598;BME280;22607;49.550;11.940;2023-12-29T06:20:08;96676.56;;;6.88;100.00
36598;BME280;22607;49.550;11.940;2023-12-29T06:22:40;96676.16;;;6.74;100.00
36598;BME280;22607;49.550;11.940;2023-12-29T06:25:17;96670.63;;;6.77;100.00
36598;BME280;22607;49.550;11.940;2023-12-29T06:27:44;96662.88;;;6.67;100.00
36598;BME280;22607;49.550;11.940;2023-12-29T06:30:11;96669.63;;;6.70;100.00
36598;BME280;22607;49.550;11.940;2023-12-29T06:32:38;96671.53;;;6.68;100.00
36598;BME280;22607;49.550;11.940;2023-12-29T06:35:05;96670.22;;;6.64;100.00
36598;BME280;22607;49.550;11.940;2023-12-29T06:37:33;96670.28;;;6.72;100.00
36598;BME280;22607;49.550;11.940;2023-12-29T06:40:00;96673.78;;;6.63;100.00
36598;BME280;22607;49.550;11.940;2023-12-29T06:42:27;96663.72;;;6.68;100.00
36598;BME280;22607;49.550;11.940;2023-12-29T06:44:53;96668.03;;;6.77;100.00
36598;BME280;22607;49.550;11.940;2023-12-29T06:47:35;96674.84;;;6.70;100.00
36598;BME280;22607;49.550;11.940;2023-12-29T06:50:02;96669.44;;;6.72;100.00
36598;BME280;22607;49.550;11.940;2023-12-29T06:52:30;96667.88;;;6.79;100.00
36598;BME280;22607;49.550;11.940;2023-12-29T06:55:00;96669.63;;;6.70;100.00
36598;BME280;22607;49.550;11.940;2023-12-29T06:57:28;96663.88;;;6.66;100.00
36598;BME280;22607;49.550;11.940;2023-12-29T06:59:56;96673.47;;;6.84;100.00
36598;BME280;22607;49.550;11.940;2023-12-29T07:02:23;96668.38;;;6.82;100.00
36598;BME280;22607;49.550;11.940;2023-12-29T07:04:49;96675.78;;;6.87;100.00
36598;BME280;22607;49.550;11.940;2023-12-29T07:07:16;96678.81;;;6.82;100.00
36598;BME280;22607;49.550;11.940;2023-12-29T07:09:43;96680.56;;;6.74;100.00
36598;BME280;22607;49.550;11.940;2023-12-29T07:12:10;96687.28;;;6.76;100.00
36598;BME280;22607;49.550;11.940;2023-12-29T07:14:46;96685.66;;;6.75;100.00
36598;BME280;22607;49.550;11.940;2023-12-29T07:17:13;96706.28;;;6.87;100.00
36598;BME280;22607;49.550;11.940;2023-12-29T07:19:40;96707.47;;;6.74;100.00
36598;BME280;22607;49.550;11.940;2023-12-29T07:22:06;96699.63;;;6.74;100.00
36598;BME280;22607;49.550;11.940;2023-12-29T07:24:35;96695.41;;;6.73;100.00
36598;BME280;22607;49.550;11.940;2023-12-29T07:27:03;96703.56;;;6.70;100.00
36598;BME280;22607;49.550;11.940;2023-12-29T07:29:30;96691.81;;;6.74;100.00
36598;BME280;22607;49.550;11.940;2023-12-29T07:31:56;96693.72;;;6.90;100.00
36598;BME280;22607;49.550;11.940;2023-12-29T07:34:23;96702.75;;;6.96;100.00
36598;BME280;22607;49.550;11.940;2023-12-29T07:36:57;96696.53;;;6.97;100.00
36598;BME280;22607;49.550;11.940;2023-12-29T07:39:24;96695.34;;;7.09;100.00
36598;BME280;22607;49.550;11.940;2023-12-29T07:41:51;96703.59;;;7.23;100.00
36598;BME280;22607;49.550;11.940;2023-12-29T07:44:22;96700.66;;;7.26;100.00
36598;BME280;22607;49.550;11.940;2023-12-29T07:46:48;96701.03;;;7.40;100.00
36598;BME280;22607;49.550;11.940;2023-12-29T07:49:15;96698.47;;;7.48;100.00
36598;BME280;22607;49.550;11.940;2023-12-29T07:51:44;96696.03;;;7.46;100.00
36598;BME280;22607;49.550;11.940;2023-12-29T07:54:12;96707.31;;;7.47;100.00
36598;BME280;22607;49.550;11.940;2023-12-29T07:56:38;96699.66;;;7.54;100.00
36598;BME280;22607;49.550;11.940;2023-12-29T07:59:05;96704.41;;;7.58;100.00
36598;BME280;22607;49.550;11.940;2023-12-29T08:01:35;96709.22;;;7.71;100.00
36598;BME280;22607;49.550;11.940;2023-12-29T08:04:08;96699.38;;;7.65;100.00
36598;BME280;22607;49.550;11.940;2023-12-29T08:06:37;96696.00;;;7.81;100.00
36598;BME280;22607;49.550;11.940;2023-12-29T08:09:06;96702.66;;;8.27;100.00
36598;BME280;22607;49.550;11.940;2023-12-29T08:11:33;96701.34;;;8.23;100.00
36598;BME280;22607;49.550;11.940;2023-12-29T08:14:00;96706.47;;;8.41;100.00
36598;BME280;22607;49.550;11.940;2023-12-29T08:16:27;96705.63;;;8.32;100.00
36598;BME280;22607;49.550;11.940;2023-12-29T08:18:53;96714.50;;;9.14;100.00
36598;BME280;22607;49.550;11.940;2023-12-29T08:21:20;96709.28;;;9.23;100.00
36598;BME280;22607;49.550;11.940;2023-12-29T08:23:48;96717.66;;;8.93;100.00
36598;BME280;22607;49.550;11.940;2023-12-29T08:26:15;96711.41;;;8.86;100.00
36598;BME280;22607;49.550;11.940;2023-12-29T08:28:41;96710.59;;;9.18;100.00
36598;BME280;22607;49.550;11.940;2023-12-29T08:31:08;96713.28;;;9.98;100.00
36598;BME280;22607;49.550;11.940;2023-12-29T08:33:37;96714.47;;;10.19;100.00
36598;BME280;22607;49.550;11.940;2023-12-29T08:36:04;96705.34;;;9.75;100.00
36598;BME280;22607;49.550;11.940;2023-12-29T08:38:31;96711.34;;;9.92;100.00
36598;BME280;22607;49.550;11.940;2023-12-29T08:40:59;96723.59;;;10.00;100.00
36598;BME280;22607;49.550;11.940;2023-12-29T08:43:25;96721.31;;;10.29;100.00
36598;BME280;22607;49.550;11.940;2023-12-29T08:45:54;96713.72;;;10.34;100.00
36598;BME280;22607;49.550;11.940;2023-12-29T08:48:23;96725.66;;;9.81;100.00
36598;BME280;22607;49.550;11.940;2023-12-29T08:50:50;96721.38;;;9.32;100.00
36598;BME280;22607;49.550;11.940;2023-12-29T08:53:18;96732.34;;;9.36;100.00
36598;BME280;22607;49.550;11.940;2023-12-29T08:55:45;96723.81;;;9.33;100.00
36598;BME280;22607;49.550;11.940;2023-12-29T08:58:22;96728.88;;;9.92;100.00
36598;BME280;22607;49.550;11.940;2023-12-29T09:01:05;96737.94;;;10.53;100.00
36598;BME280;22607;49.550;11.940;2023-12-29T09:03:32;96732.41;;;10.71;100.00
36598;BME280;22607;49.550;11.940;2023-12-29T09:06:01;96736.53;;;10.65;100.00
36598;BME280;22607;49.550;11.940;2023-12-29T09:08:41;96742.03;;;10.15;100.00
36598;BME280;22607;49.550;11.940;2023-12-29T09:11:22;96740.44;;;10.06;100.00
36598;BME280;22607;49.550;11.940;2023-12-29T09:13:48;96748.91;;;9.84;100.00
36598;BME280;22607;49.550;11.940;2023-12-29T09:16:16;96741.56;;;9.71;100.00
36598;BME280;22607;49.550;11.940;2023-12-29T09:18:42;96749.31;;;9.65;100.00
36598;BME280;22607;49.550;11.940;2023-12-29T09:21:09;96741.50;;;9.48;100.00
36598;BME280;22607;49.550;11.940;2023-12-29T09:23:36;96748.53;;;9.48;100.00
36598;BME280;22607;49.550;11.940;2023-12-29T09:26:04;96747.97;;;9.69;100.00
36598;BME280;22607;49.550;11.940;2023-12-29T09:28:32;96750.94;;;9.66;100.00
36598;BME280;22607;49.550;11.940;2023-12-29T09:30:59;96756.63;;;9.78;100.00
36598;BME280;22607;49.550;11.940;2023-12-29T09:33:27;96752.81;;;10.29;100.00
36598;BME280;22607;49.550;11.940;2023-12-29T09:35:55;96745.59;;;10.62;100.00
36598;BME280;22607;49.550;11.940;2023-12-29T09:38:24;96750.56;;;10.26;100.00
36598;BME280;22607;49.550;11.940;2023-12-29T09:40:52;96739.56;;;11.00;93.87
36598;BME280;22607;49.550;11.940;2023-12-29T09:43:20;96743.59;;;11.26;93.91
36598;BME280;22607;49.550;11.940;2023-12-29T09:45:50;96747.19;;;11.94;86.83
36598;BME280;22607;49.550;11.940;2023-12-29T09:48:19;96750.09;;;11.84;86.49
36598;BME280;22607;49.550;11.940;2023-12-29T09:50:49;96746.91;;;11.89;87.57
36598;BME280;22607;49.550;11.940;2023-12-29T09:53:17;96743.91;;;12.22;83.68
36598;BME280;22607;49.550;11.940;2023-12-29T09:55:43;96741.44;;;12.36;81.07
36598;BME280;22607;49.550;11.940;2023-12-29T09:58:12;96743.69;;;12.60;81.74
36598;BME280;22607;49.550;11.940;2023-12-29T10:00:39;96736.16;;;12.36;77.23
36598;BME280;22607;49.550;11.940;2023-12-29T10:03:08;96741.94;;;12.46;78.68
36598;BME280;22607;49.550;11.940;2023-12-29T10:05:35;96728.38;;;12.71;76.67
36598;BME280;22607;49.550;11.940;2023-12-29T10:08:03;96735.69;;;12.69;76.53
36598;BME280;22607;49.550;11.940;2023-12-29T10:10:33;96725.63;;;12.57;76.61
36598;BME280;22607;49.550;11.940;2023-12-29T10:13:01;96725.28;;;12.82;76.88
36598;BME280;22607;49.550;11.940;2023-12-29T10:15:36;96727.09;;;11.93;76.64
36598;BME280;22607;49.550;11.940;2023-12-29T10:18:22;96717.97;;;11.43;79.60
36598;BME280;22607;49.550;11.940;2023-12-29T10:21:30;96717.38;;;10.80;83.61
36598;BME280;22607;49.550;11.940;2023-12-29T10:24:12;96715.53;;;10.65;85.31
36598;BME280;22607;49.550;11.940;2023-12-29T10:26:41;96724.19;;;10.74;88.27
36598;BME280;22607;49.550;11.940;2023-12-29T10:29:11;96729.22;;;10.60;92.28
36598;BME280;22607;49.550;11.940;2023-12-29T10:31:40;96723.84;;;10.54;93.43
36598;BME280;22607;49.550;11.940;2023-12-29T10:34:20;96719.09;;;10.49;92.43
36598;BME280;22607;49.550;11.940;2023-12-29T10:36:50;96714.97;;;10.55;93.87
36598;BME280;22607;49.550;11.940;2023-12-29T10:39:18;96707.72;;;10.57;97.63
36598;BME280;22607;49.550;11.940;2023-12-29T10:41:45;96709.56;;;10.71;98.95
36598;BME280;22607;49.550;11.940;2023-12-29T10:44:12;96705.16;;;10.48;95.64
36598;BME280;22607;49.550;11.940;2023-12-29T10:46:39;96693.00;;;10.71;97.33
36598;BME280;22607;49.550;11.940;2023-12-29T10:49:12;96695.22;;;10.59;94.88
36598;BME280;22607;49.550;11.940;2023-12-29T10:51:41;96678.97;;;11.02;91.82
36598;BME280;22607;49.550;11.940;2023-12-29T10:54:19;96673.72;;;10.79;91.78
36598;BME280;22607;49.550;11.940;2023-12-29T10:56:45;96677.19;;;10.94;93.33
36598;BME280;22607;49.550;11.940;2023-12-29T10:59:12;96669.38;;;11.24;92.27
36598;BME280;22607;49.550;11.940;2023-12-29T11:01:39;96663.19;;;11.17;90.50
36598;BME280;22607;49.550;11.940;2023-12-29T11:04:06;96667.75;;;11.23;92.11
36598;BME280;22607;49.550;11.940;2023-12-29T11:06:43;96662.38;;;11.01;92.19
36598;BME280;22607;49.550;11.940;2023-12-29T11:09:27;96666.13;;;10.84;93.47
36598;BME280;22607;49.550;11.940;2023-12-29T11:11:56;96662.00;;;10.66;95.79
36598;BME280;22607;49.550;11.940;2023-12-29T11:14:24;96664.47;;;10.68;100.00
36598;BME280;22607;49.550;11.940;2023-12-29T11:16:52;96663.94;;;10.49;100.00
36598;BME280;22607;49.550;11.940;2023-12-29T11:19:21;96666.28;;;10.67;100.00
36598;BME280;22607;49.550;11.940;2023-12-29T11:21:52;96677.94;;;10.41;100.00
36598;BME280;22607;49.550;11.940;2023-12-29T11:24:23;96667.22;;;10.19;100.00
36598;BME280;22607;49.550;11.940;2023-12-29T11:27:04;96665.59;;;10.18;100.00
36598;BME280;22607;49.550;11.940;2023-12-29T11:29:34;96670.41;;;10.15;100.00
36598;BME280;22607;49.550;11.940;2023-12-29T11:32:03;96666.16;;;10.14;100.00
36598;BME280;22607;49.550;11.940;2023-12-29T11:34:47;96662.53;;;9.83;100.00
36598;BME280;22607;49.550;11.940;2023-12-29T11:37:43;96664.16;;;9.84;100.00
36598;BME280;22607;49.550;11.940;2023-12-29T11:40:19;96660.94;;;9.74;100.00
36598;BME280;22607;49.550;11.940;2023-12-29T11:42:49;96654.53;;;9.76;100.00
36598;BME280;22607;49.550;11.940;2023-12-29T11:45:25;96651.72;;;9.78;100.00
36598;BME280;22607;49.550;11.940;2023-12-29T11:47:54;96644.41;;;9.96;100.00
36598;BME280;22607;49.550;11.940;2023-12-29T11:50:30;96639.03;;;9.90;100.00
36598;BME280;22607;49.550;11.940;2023-12-29T11:52:58;96642.66;;;9.89;100.00
36598;BME280;22607;49.550;11.940;2023-12-29T11:55:30;96638.59;;;9.78;100.00
36598;BME280;22607;49.550;11.940;2023-12-29T11:57:57;96630.75;;;9.78;100.00
36598;BME280;22607;49.550;11.940;2023-12-29T12:00:44;96639.66;;;10.00;100.00
36598;BME280;22607;49.550;11.940;2023-12-29T12:03:28;96639.53;;;9.93;100.00
36598;BME280;22607;49.550;11.940;2023-12-29T12:05:55;96633.25;;;10.03;100.00
36598;BME280;22607;49.550;11.940;2023-12-29T12:08:36;96634.28;;;9.93;100.00
36598;BME280;22607;49.550;11.940;2023-12-29T12:13:56;96627.03;;;9.95;100.00
36598;BME280;22607;49.550;11.940;2023-12-29T12:19:08;96626.16;;;9.80;100.00
36598;BME280;22607;49.550;11.940;2023-12-29T12:21:39;96629.66;;;9.95;100.00
36598;BME280;22607;49.550;11.940;2023-12-29T12:24:06;96620.38;;;9.84;100.00
36598;BME280;22607;49.550;11.940;2023-12-29T12:26:34;96621.75;;;10.04;100.00
36598;BME280;22607;49.550;11.940;2023-12-29T12:29:01;96628.13;;;10.09;100.00
36598;BME280;22607;49.550;11.940;2023-12-29T12:31:27;96622.09;;;10.01;100.00
36598;BME280;22607;49.550;11.940;2023-12-29T12:33:55;96624.25;;;9.97;100.00
36598;BME280;22607;49.550;11.940;2023-12-29T12:36:22;96619.69;;;10.14;100.00
36598;BME280;22607;49.550;11.940;2023-12-29T12:38:57;96611.81;;;9.59;100.00
36598;BME280;22607;49.550;11.940;2023-12-29T12:41:25;96616.13;;;9.83;100.00
36598;BME280;22607;49.550;11.940;2023-12-29T12:46:26;96617.44;;;9.79;100.00
36598;BME280;22607;49.550;11.940;2023-12-29T12:48:53;96610.31;;;9.65;100.00
36598;BME280;22607;49.550;11.940;2023-12-29T12:51:22;96609.72;;;9.86;100.00
36598;BME280;22607;49.550;11.940;2023-12-29T12:53:48;96608.25;;;9.83;100.00
36598;BME280;22607;49.550;11.940;2023-12-29T12:56:17;96599.38;;;9.61;100.00
36598;BME280;22607;49.550;11.940;2023-12-29T12:58:46;96604.88;;;9.75;100.00
36598;BME280;22607;49.550;11.940;2023-12-29T13:01:14;96608.69;;;9.64;100.00
36598;BME280;22607;49.550;11.940;2023-12-29T13:03:41;96614.41;;;9.67;100.00
36598;BME280;22607;49.550;11.940;2023-12-29T13:06:08;96610.44;;;9.71;100.00
36598;BME280;22607;49.550;11.940;2023-12-29T13:08:35;96610.13;;;9.75;100.00
36598;BME280;22607;49.550;11.940;2023-12-29T13:11:09;96606.84;;;9.72;100.00
36598;BME280;22607;49.550;11.940;2023-12-29T13:13:37;96616.59;;;9.87;100.00